createdAt,value
2024-03-12T00:01:11.362Z,16.67
2024-03-12T00:03:45.494Z,14.00
2024-03-12T00:06:14.279Z,12.53
2024-03-12T00:08:45.105Z,22.27
2024-03-12T00:11:33.083Z,12.43
2024-03-12T00:14:02.530Z,14.60
2024-03-12T00:16:42.548Z,14.70
2024-03-12T00:19:28.560Z,14.27
2024-03-12T00:28:08.716Z,12.87
2024-03-12T00:30:54.139Z,11.40
2024-03-12T00:36:39.894Z,16.83
2024-03-12T00:46:03.522Z,12.17
2024-03-12T00:49:26.086Z,9.70
2024-03-12T01:10:27.388Z,9.00
2024-03-12T01:16:58.714Z,7.50
2024-03-12T02:05:15.828Z,6.63
2024-03-12T02:07:47.213Z,6.37
2024-03-12T02:10:16.713Z,8.07
2024-03-12T02:12:46.421Z,5.67
2024-03-12T02:15:19.359Z,7.83
2024-03-12T02:17:48.813Z,8.47
2024-03-12T02:20:19.393Z,8.30
2024-03-12T02:22:48.568Z,4.73
2024-03-12T02:25:19.125Z,5.63
2024-03-12T02:27:49.242Z,7.47
2024-03-12T02:30:21.160Z,4.63
2024-03-12T02:32:50.241Z,5.97
2024-03-12T02:35:21.189Z,5.63
2024-03-12T02:37:52.870Z,4.60
2024-03-12T02:40:25.421Z,10.10
2024-03-12T02:42:54.569Z,8.10
2024-03-12T02:45:25.263Z,6.00
2024-03-12T02:47:58.051Z,4.70
2024-03-12T02:50:35.102Z,5.07
2024-03-12T02:53:04.177Z,4.97
2024-03-12T02:55:35.142Z,6.37
2024-03-12T02:58:06.046Z,4.63
2024-03-12T03:00:39.333Z,4.53
2024-03-12T03:03:10.758Z,3.67
2024-03-12T03:05:41.565Z,2.60
2024-03-12T03:08:12.664Z,2.00
2024-03-12T03:10:43.255Z,4.67
2024-03-12T03:13:12.811Z,1.40
2024-03-12T03:15:41.653Z,1.40
2024-03-12T03:18:12.828Z,1.57
2024-03-12T03:20:43.194Z,1.10
2024-03-12T03:23:12.617Z,10.03
2024-03-12T03:25:44.463Z,1.10
2024-03-12T03:28:13.501Z,1.07
2024-03-12T03:30:43.579Z,1.20
2024-03-12T03:33:13.126Z,1.90
2024-03-12T03:35:43.513Z,1.73
2024-03-12T03:41:09.413Z,0.70
2024-03-12T03:43:53.409Z,7.93
2024-03-12T03:49:09.816Z,1.23
2024-03-12T03:51:54.232Z,1.90
2024-03-12T03:54:36.460Z,4.70
2024-03-12T03:57:12.704Z,8.47
2024-03-12T03:59:43.380Z,5.53
2024-03-12T04:02:25.489Z,18.80
2024-03-12T04:04:57.409Z,15.47
2024-03-12T04:07:27.539Z,4.77
2024-03-12T04:10:11.199Z,11.93
2024-03-12T04:12:46.176Z,5.20
2024-03-12T04:15:30.945Z,11.57
2024-03-12T04:20:45.416Z,10.47
2024-03-12T04:23:23.725Z,14.03
2024-03-12T04:25:55.598Z,11.37
2024-03-12T04:28:26.311Z,10.50
2024-03-12T04:31:11.216Z,12.60
2024-03-12T04:33:41.816Z,26.67
2024-03-12T04:36:20.689Z,15.30
2024-03-12T04:38:59.163Z,15.80
2024-03-12T04:41:27.689Z,27.83
2024-03-12T04:44:02.312Z,11.07
2024-03-12T04:46:37.530Z,15.67
2024-03-12T04:49:10.690Z,12.47
2024-03-12T04:51:39.517Z,24.00
2024-03-12T04:54:18.072Z,22.97
2024-03-12T04:57:03.999Z,24.73
2024-03-12T04:59:39.020Z,29.97
2024-03-12T05:02:21.637Z,23.80
2024-03-12T05:04:52.250Z,26.70
2024-03-12T05:07:21.975Z,16.80
2024-03-12T05:09:56.397Z,15.43
2024-03-12T05:12:26.227Z,15.60
2024-03-12T05:14:59.388Z,18.97
2024-03-12T05:17:30.463Z,21.27
2024-03-12T05:20:03.458Z,28.70
2024-03-12T05:22:36.060Z,17.27
2024-03-12T05:25:11.403Z,25.60
2024-03-12T05:27:48.234Z,22.97
2024-03-12T05:30:22.272Z,27.77
2024-03-12T05:32:55.364Z,22.67
2024-03-12T05:35:33.032Z,19.97
2024-03-12T05:38:09.384Z,27.43
2024-03-12T05:40:58.126Z,20.50
2024-03-12T05:43:43.985Z,14.50
2024-03-12T05:46:43.513Z,21.63
2024-03-12T05:49:16.283Z,17.53
2024-03-12T05:51:48.173Z,28.63
2024-03-12T05:54:44.910Z,27.07
2024-03-12T05:57:16.498Z,17.13
2024-03-12T05:59:44.974Z,23.13
2024-03-12T06:02:21.123Z,21.43
2024-03-12T06:04:49.622Z,17.80
2024-03-12T06:07:26.201Z,12.30
2024-03-12T06:09:56.211Z,15.43
2024-03-12T06:12:40.793Z,19.07
2024-03-12T06:15:20.810Z,28.43
2024-03-12T06:18:08.845Z,18.20
2024-03-12T06:20:43.319Z,17.37
2024-03-12T06:23:12.579Z,17.20
2024-03-12T06:25:48.752Z,21.07
2024-03-12T06:28:17.974Z,11.03
2024-03-12T06:30:47.309Z,14.70
2024-03-12T06:33:19.509Z,12.13
2024-03-12T06:35:49.418Z,21.87
2024-03-12T06:38:28.056Z,21.63
2024-03-12T06:41:08.799Z,15.43
2024-03-12T06:43:42.496Z,23.93
2024-03-12T06:46:17.810Z,16.97
2024-03-12T06:48:48.839Z,10.50
2024-03-12T06:51:17.739Z,20.23
2024-03-12T06:53:46.978Z,13.60
2024-03-12T06:56:18.647Z,28.43
2024-03-12T06:58:50.500Z,24.07
2024-03-12T07:01:21.003Z,24.10
2024-03-12T07:03:54.427Z,13.60
2024-03-12T07:06:37.063Z,20.63
2024-03-12T07:09:13.557Z,18.53
2024-03-12T07:11:44.205Z,18.00
2024-03-12T07:14:27.630Z,20.57
2024-03-12T07:16:58.869Z,13.73
2024-03-12T07:19:34.265Z,14.30
2024-03-12T07:22:08.570Z,30.10
2024-03-12T07:24:42.016Z,32.93
2024-03-12T07:27:17.982Z,19.47
2024-03-12T07:29:53.645Z,36.93
2024-03-12T07:35:37.364Z,43.33
2024-03-12T07:38:10.667Z,28.47
2024-03-12T07:40:44.132Z,19.57
2024-03-12T07:43:23.691Z,30.90
2024-03-12T07:45:59.830Z,40.60
2024-03-12T07:48:32.013Z,43.90
2024-03-12T07:51:06.821Z,32.10
2024-03-12T07:53:46.483Z,35.33
2024-03-12T07:56:15.823Z,38.33
2024-03-12T07:58:50.533Z,51.87
2024-03-12T08:01:22.696Z,0.00
2024-03-12T08:03:53.399Z,24.50
2024-03-12T08:06:25.317Z,35.70
2024-03-12T08:08:55.027Z,25.13
2024-03-12T08:11:23.601Z,16.17
2024-03-12T08:13:51.864Z,25.07
2024-03-12T08:16:23.728Z,32.27
2024-03-12T08:18:55.639Z,25.97
2024-03-12T08:21:34.701Z,15.80
2024-03-12T08:24:31.284Z,30.33
2024-03-12T08:27:11.615Z,29.83
2024-03-12T08:29:40.579Z,22.03
2024-03-12T08:32:10.222Z,23.43
2024-03-12T08:34:52.860Z,29.17
2024-03-12T08:37:24.131Z,23.23
2024-03-12T08:39:54.801Z,25.37
2024-03-12T08:42:23.422Z,19.23
2024-03-12T08:44:58.904Z,28.17
2024-03-12T08:47:28.930Z,26.43
2024-03-12T08:49:57.820Z,16.73
2024-03-12T08:52:32.798Z,22.77
2024-03-12T08:55:03.818Z,22.03
2024-03-12T08:57:36.209Z,0.00
2024-03-12T09:00:21.982Z,0.00
2024-03-12T09:03:12.108Z,0.00
2024-03-12T09:05:44.300Z,18.33
2024-03-12T09:08:16.132Z,23.97
2024-03-12T09:10:45.434Z,21.13
2024-03-12T09:16:38.914Z,40.27
2024-03-12T09:19:08.029Z,36.50
2024-03-12T09:21:54.788Z,19.97
2024-03-12T09:24:26.936Z,31.43
2024-03-12T09:26:57.582Z,35.47
2024-03-12T09:29:42.403Z,34.80
2024-03-12T09:32:15.352Z,23.07
2024-03-12T09:35:00.623Z,43.87
2024-03-12T09:37:50.174Z,30.23
2024-03-12T09:40:24.378Z,46.50
2024-03-12T09:43:01.057Z,35.47
2024-03-12T09:45:43.110Z,32.57
2024-03-12T09:48:22.882Z,38.63
2024-03-12T09:54:08.930Z,25.73
2024-03-12T09:56:50.742Z,31.50
2024-03-12T09:59:27.287Z,41.77
2024-03-12T10:02:05.692Z,27.20
2024-03-12T10:04:42.253Z,27.17
2024-03-12T10:07:16.657Z,26.93
2024-03-12T10:10:18.328Z,39.43
2024-03-12T10:13:35.920Z,29.40
2024-03-12T10:16:44.236Z,21.00
2024-03-12T10:19:20.792Z,28.23
2024-03-12T10:24:53.768Z,29.63
2024-03-12T10:31:03.409Z,22.97
2024-03-12T10:33:43.039Z,30.97
2024-03-12T10:40:23.892Z,25.67
2024-03-12T10:43:17.960Z,18.93
2024-03-12T10:46:37.694Z,26.27
2024-03-12T10:52:38.439Z,15.83
2024-03-12T10:55:20.154Z,20.30
2024-03-12T10:58:43.802Z,31.13
2024-03-12T11:04:18.697Z,20.53
2024-03-12T11:07:10.696Z,17.43
2024-03-12T11:09:59.236Z,28.60
2024-03-12T11:16:11.707Z,23.93
2024-03-12T11:23:15.478Z,22.10
2024-03-12T11:39:02.804Z,7.70
2024-03-12T11:42:24.805Z,10.17
2024-03-12T11:51:08.232Z,10.40
2024-03-12T11:56:46.438Z,16.87
2024-03-12T11:59:29.298Z,7.23
2024-03-12T12:02:04.612Z,16.03
2024-03-12T12:04:43.951Z,13.73
2024-03-12T12:07:21.144Z,15.87
2024-03-12T12:13:24.762Z,24.87
2024-03-12T12:21:59.324Z,14.27
2024-03-12T12:30:43.757Z,14.43
2024-03-12T13:48:02.790Z,5.90
2024-03-12T14:15:16.771Z,9.53
2024-03-12T16:00:26.540Z,21.10
2024-03-12T16:18:53.991Z,25.70
2024-03-12T19:02:48.265Z,21.23
2024-03-12T20:33:05.428Z,26.47
2024-03-12T21:38:42.750Z,19.40
2024-03-12T21:48:25.493Z,14.70
2024-03-12T21:55:17.402Z,15.00
2024-03-12T21:57:47.836Z,17.97
2024-03-12T22:14:53.161Z,17.33
2024-03-12T22:17:41.192Z,9.37
2024-03-12T22:45:54.916Z,11.43
2024-03-12T23:16:46.922Z,11.30
2024-03-12T23:22:53.237Z,16.17
2024-03-12T23:39:17.587Z,13.97
2024-03-12T23:44:54.576Z,12.60
2024-03-12T23:47:49.269Z,12.67
2024-03-12T23:50:54.448Z,12.20
